sensor_id;sensor_type;location;lat;lon;timestamp;pressure;altitude;pressure_sealevel;temperature;humidity
28306;BME280;7516;43.570;1.448;2023-07-31T00:00:57;100013.38;;;20.80;70.66
28306;BME280;7516;43.570;1.448;2023-07-31T00:03:26;100010.03;;;20.73;71.72
28306;BME280;7516;43.570;1.448;2023-07-31T00:05:54;100010.97;;;20.67;72.23
28306;BME280;7516;43.570;1.448;2023-07-31T00:08:21;100014.53;;;20.60;72.93
28306;BME280;7516;43.570;1.448;2023-07-31T00:10:52;100007.81;;;20.58;73.22
28306;BME280;7516;43.570;1.448;2023-07-31T00:13:19;100006.06;;;20.52;73.62
28306;BME280;7516;43.570;1.448;2023-07-31T00:15:47;100003.06;;;20.48;74.51
28306;BME280;7516;43.570;1.448;2023-07-31T00:18:14;100008.03;;;20.45;74.92
28306;BME280;7516;43.570;1.448;2023-07-31T00:20:43;100007.44;;;20.43;75.81
28306;BME280;7516;43.570;1.448;2023-07-31T00:23:11;100006.50;;;20.37;75.76
28306;BME280;7516;43.570;1.448;2023-07-31T00:25:40;100001.25;;;20.31;77.01
28306;BME280;7516;43.570;1.448;2023-07-31T00:28:07;100003.19;;;20.23;77.69
28306;BME280;7516;43.570;1.448;2023-07-31T00:30:35;100007.94;;;20.21;78.55
28306;BME280;7516;43.570;1.448;2023-07-31T00:33:02;100002.94;;;20.13;79.70
28306;BME280;7516;43.570;1.448;2023-07-31T00:35:29;100002.94;;;20.13;79.94
28306;BME280;7516;43.570;1.448;2023-07-31T00:37:59;99997.25;;;20.10;80.04
28306;BME280;7516;43.570;1.448;2023-07-31T00:40:26;99993.78;;;20.09;80.28
28306;BME280;7516;43.570;1.448;2023-07-31T00:42:54;100001.06;;;20.02;80.46
28306;BME280;7516;43.570;1.448;2023-07-31T00:45:22;99995.59;;;19.97;80.81
28306;BME280;7516;43.570;1.448;2023-07-31T00:47:52;99987.03;;;19.95;81.56
28306;BME280;7516;43.570;1.448;2023-07-31T00:50:21;99994.75;;;19.97;82.01
28306;BME280;7516;43.570;1.448;2023-07-31T00:52:49;99990.34;;;19.90;81.82
28306;BME280;7516;43.570;1.448;2023-07-31T00:55:18;99998.56;;;19.89;82.23
28306;BME280;7516;43.570;1.448;2023-07-31T00:57:48;99987.91;;;19.89;82.36
28306;BME280;7516;43.570;1.448;2023-07-31T01:00:17;99982.25;;;19.85;82.19
28306;BME280;7516;43.570;1.448;2023-07-31T01:02:44;99986.38;;;19.81;83.42
28306;BME280;7516;43.570;1.448;2023-07-31T01:05:12;99990.56;;;19.77;83.27
28306;BME280;7516;43.570;1.448;2023-07-31T01:07:45;99990.78;;;19.76;83.04
28306;BME280;7516;43.570;1.448;2023-07-31T01:10:21;99991.22;;;19.73;83.57
28306;BME280;7516;43.570;1.448;2023-07-31T01:12:51;99990.88;;;19.69;83.67
28306;BME280;7516;43.570;1.448;2023-07-31T01:15:21;99992.13;;;19.67;83.93
28306;BME280;7516;43.570;1.448;2023-07-31T01:17:49;99992.56;;;19.64;84.01
28306;BME280;7516;43.570;1.448;2023-07-31T01:20:20;99989.31;;;19.62;84.07
28306;BME280;7516;43.570;1.448;2023-07-31T01:23:22;99995.91;;;19.59;84.79
28306;BME280;7516;43.570;1.448;2023-07-31T01:26:00;99990.81;;;19.58;85.51
28306;BME280;7516;43.570;1.448;2023-07-31T01:28:37;99992.88;;;19.56;84.83
28306;BME280;7516;43.570;1.448;2023-07-31T01:31:09;99981.06;;;19.51;85.71
28306;BME280;7516;43.570;1.448;2023-07-31T01:33:37;99989.25;;;19.50;85.46
28306;BME280;7516;43.570;1.448;2023-07-31T01:36:05;99983.13;;;19.49;85.28
28306;BME280;7516;43.570;1.448;2023-07-31T01:38:33;99979.88;;;19.47;85.23
28306;BME280;7516;43.570;1.448;2023-07-31T01:41:02;99985.59;;;19.44;85.25
28306;BME280;7516;43.570;1.448;2023-07-31T01:43:29;99978.09;;;19.41;84.96
28306;BME280;7516;43.570;1.448;2023-07-31T01:45:57;99975.66;;;19.40;84.68
28306;BME280;7516;43.570;1.448;2023-07-31T01:48:24;99980.38;;;19.38;84.74
28306;BME280;7516;43.570;1.448;2023-07-31T01:50:52;99972.03;;;19.34;84.92
28306;BME280;7516;43.570;1.448;2023-07-31T01:53:19;99977.78;;;19.31;85.25
28306;BME280;7516;43.570;1.448;2023-07-31T01:55:46;99979.84;;;19.29;85.15
28306;BME280;7516;43.570;1.448;2023-07-31T01:58:15;99973.38;;;19.25;84.94
28306;BME280;7516;43.570;1.448;2023-07-31T02:00:43;99976.03;;;19.25;84.82
28306;BME280;7516;43.570;1.448;2023-07-31T02:03:10;99971.16;;;19.22;84.95
28306;BME280;7516;43.570;1.448;2023-07-31T02:05:44;99964.66;;;19.18;84.64
28306;BME280;7516;43.570;1.448;2023-07-31T02:08:12;99958.38;;;19.12;84.93
28306;BME280;7516;43.570;1.448;2023-07-31T02:10:39;99960.22;;;19.12;84.82
28306;BME280;7516;43.570;1.448;2023-07-31T02:13:07;99955.34;;;19.09;85.24
28306;BME280;7516;43.570;1.448;2023-07-31T02:15:36;99952.94;;;19.07;85.34
28306;BME280;7516;43.570;1.448;2023-07-31T02:18:03;99950.50;;;19.06;85.02
28306;BME280;7516;43.570;1.448;2023-07-31T02:20:34;99947.22;;;19.04;84.91
28306;BME280;7516;43.570;1.448;2023-07-31T02:23:02;99948.47;;;19.01;84.65
28306;BME280;7516;43.570;1.448;2023-07-31T02:25:29;99948.94;;;18.98;84.75
28306;BME280;7516;43.570;1.448;2023-07-31T02:27:57;99948.56;;;18.95;84.78
28306;BME280;7516;43.570;1.448;2023-07-31T02:30:25;99944.28;;;18.94;85.03
28306;BME280;7516;43.570;1.448;2023-07-31T02:32:53;99946.56;;;18.90;84.85
28306;BME280;7516;43.570;1.448;2023-07-31T02:35:21;99947.59;;;18.89;85.07
28306;BME280;7516;43.570;1.448;2023-07-31T02:37:48;99945.97;;;18.88;84.76
28306;BME280;7516;43.570;1.448;2023-07-31T02:40:16;99949.06;;;18.85;84.78
28306;BME280;7516;43.570;1.448;2023-07-31T02:42:43;99947.66;;;18.83;84.69
28306;BME280;7516;43.570;1.448;2023-07-31T02:45:11;99941.78;;;18.81;84.99
28306;BME280;7516;43.570;1.448;2023-07-31T02:47:38;99937.09;;;18.76;84.75
28306;BME280;7516;43.570;1.448;2023-07-31T02:50:08;99939.97;;;18.74;85.26
28306;BME280;7516;43.570;1.448;2023-07-31T02:52:35;99934.91;;;18.73;85.16
28306;BME280;7516;43.570;1.448;2023-07-31T02:55:03;99936.16;;;18.70;85.26
28306;BME280;7516;43.570;1.448;2023-07-31T02:57:31;99936.56;;;18.67;85.39
28306;BME280;7516;43.570;1.448;2023-07-31T02:59:58;99929.63;;;18.66;85.39
28306;BME280;7516;43.570;1.448;2023-07-31T03:02:26;99933.31;;;18.65;85.24
28306;BME280;7516;43.570;1.448;2023-07-31T03:04:53;99934.59;;;18.63;85.35
28306;BME280;7516;43.570;1.448;2023-07-31T03:07:22;99921.53;;;18.61;85.45
28306;BME280;7516;43.570;1.448;2023-07-31T03:09:50;99925.22;;;18.60;85.42
28306;BME280;7516;43.570;1.448;2023-07-31T03:12:17;99920.94;;;18.59;84.98
28306;BME280;7516;43.570;1.448;2023-07-31T03:14:45;99913.38;;;18.56;85.33
28306;BME280;7516;43.570;1.448;2023-07-31T03:17:13;99928.72;;;18.54;85.69
28306;BME280;7516;43.570;1.448;2023-07-31T03:19:40;99921.38;;;18.50;85.61
28306;BME280;7516;43.570;1.448;2023-07-31T03:22:08;99926.50;;;18.51;85.46
28306;BME280;7516;43.570;1.448;2023-07-31T03:24:37;99928.13;;;18.52;85.95
28306;BME280;7516;43.570;1.448;2023-07-31T03:27:05;99929.81;;;18.47;85.79
28306;BME280;7516;43.570;1.448;2023-07-31T03:29:32;99921.47;;;18.43;85.73
28306;BME280;7516;43.570;1.448;2023-07-31T03:32:00;99921.06;;;18.39;85.60
28306;BME280;7516;43.570;1.448;2023-07-31T03:34:27;99918.66;;;18.38;86.02
28306;BME280;7516;43.570;1.448;2023-07-31T03:36:55;99925.00;;;18.37;86.27
28306;BME280;7516;43.570;1.448;2023-07-31T03:39:22;99925.00;;;18.37;85.69
28306;BME280;7516;43.570;1.448;2023-07-31T03:41:51;99922.56;;;18.35;85.90
28306;BME280;7516;43.570;1.448;2023-07-31T03:44:19;99922.97;;;18.32;85.53
28306;BME280;7516;43.570;1.448;2023-07-31T03:46:46;99925.84;;;18.31;86.19
28306;BME280;7516;43.570;1.448;2023-07-31T03:49:14;99931.59;;;18.28;85.57
28306;BME280;7516;43.570;1.448;2023-07-31T03:51:41;99927.09;;;18.28;85.70
28306;BME280;7516;43.570;1.448;2023-07-31T03:54:09;99924.66;;;18.27;85.66
28306;BME280;7516;43.570;1.448;2023-07-31T03:56:36;99932.03;;;18.25;85.33
28306;BME280;7516;43.570;1.448;2023-07-31T03:59:06;99935.09;;;18.22;85.60
28306;BME280;7516;43.570;1.448;2023-07-31T04:01:33;99937.38;;;18.18;85.35
28306;BME280;7516;43.570;1.448;2023-07-31T04:04:01;99937.00;;;18.15;85.72
28306;BME280;7516;43.570;1.448;2023-07-31T04:06:28;99942.50;;;18.13;86.12
28306;BME280;7516;43.570;1.448;2023-07-31T04:08:55;99946.44;;;18.11;85.86
28306;BME280;7516;43.570;1.448;2023-07-31T04:11:23;99948.25;;;18.10;86.37
28306;BME280;7516;43.570;1.448;2023-07-31T04:13:50;99947.25;;;18.04;86.49
28306;BME280;7516;43.570;1.448;2023-07-31T04:16:19;99944.03;;;18.02;86.74
28306;BME280;7516;43.570;1.448;2023-07-31T04:18:47;99944.25;;;18.01;86.27
28306;BME280;7516;43.570;1.448;2023-07-31T04:21:14;99954.47;;;17.97;85.86
28306;BME280;7516;43.570;1.448;2023-07-31T04:23:41;99951.81;;;17.97;86.01
28306;BME280;7516;43.570;1.448;2023-07-31T04:26:09;99953.28;;;17.93;85.77
28306;BME280;7516;43.570;1.448;2023-07-31T04:28:36;99949.81;;;17.93;86.03
28306;BME280;7516;43.570;1.448;2023-07-31T04:31:04;99954.91;;;17.88;86.23
28306;BME280;7516;43.570;1.448;2023-07-31T04:33:33;99953.09;;;17.88;86.22
28306;BME280;7516;43.570;1.448;2023-07-31T04:36:00;99959.63;;;17.86;86.02
28306;BME280;7516;43.570;1.448;2023-07-31T04:38:28;99951.28;;;17.82;85.94
28306;BME280;7516;43.570;1.448;2023-07-31T04:40:55;99960.91;;;17.77;86.38
28306;BME280;7516;43.570;1.448;2023-07-31T04:43:23;99966.19;;;17.77;86.01
28306;BME280;7516;43.570;1.448;2023-07-31T04:45:50;99968.06;;;17.76;86.14
28306;BME280;7516;43.570;1.448;2023-07-31T04:48:20;99969.91;;;17.76;85.55
28306;BME280;7516;43.570;1.448;2023-07-31T04:50:48;99973.56;;;17.75;85.38
28306;BME280;7516;43.570;1.448;2023-07-31T04:53:16;99972.75;;;17.74;85.43
28306;BME280;7516;43.570;1.448;2023-07-31T04:55:43;99981.72;;;17.73;85.22
28306;BME280;7516;43.570;1.448;2023-07-31T04:58:11;99989.69;;;17.73;85.43
28306;BME280;7516;43.570;1.448;2023-07-31T05:00:37;99993.16;;;17.74;85.24
28306;BME280;7516;43.570;1.448;2023-07-31T05:03:05;99983.56;;;17.73;84.99
28306;BME280;7516;43.570;1.448;2023-07-31T05:05:32;99983.56;;;17.73;84.90
28306;BME280;7516;43.570;1.448;2023-07-31T05:08:01;99989.47;;;17.75;84.91
28306;BME280;7516;43.570;1.448;2023-07-31T05:10:29;99983.16;;;17.76;84.47
28306;BME280;7516;43.570;1.448;2023-07-31T05:12:57;99979.03;;;17.80;84.57
28306;BME280;7516;43.570;1.448;2023-07-31T05:15:25;99975.97;;;17.83;84.20
28306;BME280;7516;43.570;1.448;2023-07-31T05:17:52;99983.72;;;17.84;83.86
28306;BME280;7516;43.570;1.448;2023-07-31T05:20:20;99984.53;;;17.85;83.71
28306;BME280;7516;43.570;1.448;2023-07-31T05:22:47;99981.66;;;17.86;83.90
28306;BME280;7516;43.570;1.448;2023-07-31T05:25:16;99984.31;;;17.86;83.36
28306;BME280;7516;43.570;1.448;2023-07-31T05:27:44;99979.59;;;17.88;83.41
28306;BME280;7516;43.570;1.448;2023-07-31T05:30:11;99980.41;;;17.89;83.08
28306;BME280;7516;43.570;1.448;2023-07-31T05:32:39;99983.69;;;17.91;82.87
28306;BME280;7516;43.570;1.448;2023-07-31T05:35:07;99979.78;;;17.93;82.76
28306;BME280;7516;43.570;1.448;2023-07-31T05:37:35;99984.84;;;17.95;82.40
28306;BME280;7516;43.570;1.448;2023-07-31T05:40:03;99987.72;;;18.00;82.34
28306;BME280;7516;43.570;1.448;2023-07-31T05:42:32;99980.72;;;18.05;82.04
28306;BME280;7516;43.570;1.448;2023-07-31T05:45:00;99971.34;;;18.03;81.75
28306;BME280;7516;43.570;1.448;2023-07-31T05:47:28;99981.94;;;18.10;81.68
28306;BME280;7516;43.570;1.448;2023-07-31T05:49:55;99983.56;;;18.11;81.10
28306;BME280;7516;43.570;1.448;2023-07-31T05:52:23;99980.47;;;18.14;81.29
28306;BME280;7516;43.570;1.448;2023-07-31T05:54:50;99985.56;;;18.15;80.89
28306;BME280;7516;43.570;1.448;2023-07-31T05:57:18;99993.47;;;18.22;80.96
28306;BME280;7516;43.570;1.448;2023-07-31T05:59:47;100000.19;;;18.24;81.02
28306;BME280;7516;43.570;1.448;2023-07-31T06:02:14;99993.66;;;18.27;80.45
28306;BME280;7516;43.570;1.448;2023-07-31T06:04:42;99990.56;;;18.30;80.69
28306;BME280;7516;43.570;1.448;2023-07-31T06:07:09;99992.78;;;18.33;79.42
28306;BME280;7516;43.570;1.448;2023-07-31T06:09:37;99996.03;;;18.35;79.09
28306;BME280;7516;43.570;1.448;2023-07-31T06:12:05;99995.63;;;18.38;78.77
28306;BME280;7516;43.570;1.448;2023-07-31T06:14:33;100001.19;;;18.55;79.04
28306;BME280;7516;43.570;1.448;2023-07-31T06:17:02;100007.31;;;18.62;77.79
28306;BME280;7516;43.570;1.448;2023-07-31T06:19:29;99998.38;;;18.74;76.28
28306;BME280;7516;43.570;1.448;2023-07-31T06:21:57;99990.69;;;18.66;75.83
28306;BME280;7516;43.570;1.448;2023-07-31T06:24:24;99991.31;;;18.68;75.43
28306;BME280;7516;43.570;1.448;2023-07-31T06:26:52;99998.25;;;18.69;74.90
28306;BME280;7516;43.570;1.448;2023-07-31T06:29:19;99995.72;;;18.74;74.85
28306;BME280;7516;43.570;1.448;2023-07-31T06:31:47;99990.00;;;18.77;74.38
28306;BME280;7516;43.570;1.448;2023-07-31T06:34:15;99986.63;;;18.89;74.69
28306;BME280;7516;43.570;1.448;2023-07-31T06:36:43;99996.22;;;18.90;74.47
28306;BME280;7516;43.570;1.448;2023-07-31T06:39:10;99993.78;;;18.88;74.16
28306;BME280;7516;43.570;1.448;2023-07-31T06:41:38;99994.00;;;18.87;73.36
28306;BME280;7516;43.570;1.448;2023-07-31T06:44:06;99992.69;;;18.96;73.70
28306;BME280;7516;43.570;1.448;2023-07-31T06:46:33;99997.41;;;18.94;72.78
28306;BME280;7516;43.570;1.448;2023-07-31T06:49:01;99995.72;;;18.99;72.48
28306;BME280;7516;43.570;1.448;2023-07-31T06:51:30;99996.09;;;19.03;71.96
28306;BME280;7516;43.570;1.448;2023-07-31T06:53:58;99991.38;;;19.05;71.94
28306;BME280;7516;43.570;1.448;2023-07-31T06:56:25;99990.94;;;19.08;71.67
28306;BME280;7516;43.570;1.448;2023-07-31T06:58:53;99999.78;;;19.20;71.83
28306;BME280;7516;43.570;1.448;2023-07-31T07:01:21;100008.66;;;19.32;71.35
28306;BME280;7516;43.570;1.448;2023-07-31T07:03:48;100004.00;;;19.28;71.12
28306;BME280;7516;43.570;1.448;2023-07-31T07:06:16;99998.69;;;19.28;70.68
28306;BME280;7516;43.570;1.448;2023-07-31T07:08:45;99993.31;;;19.34;70.42
28306;BME280;7516;43.570;1.448;2023-07-31T07:11:13;99994.69;;;19.37;70.14
28306;BME280;7516;43.570;1.448;2023-07-31T07:13:40;99994.28;;;19.58;70.44
28306;BME280;7516;43.570;1.448;2023-07-31T07:16:08;99996.75;;;19.71;69.57
28306;BME280;7516;43.570;1.448;2023-07-31T07:18:36;100004.31;;;19.56;68.59
28306;BME280;7516;43.570;1.448;2023-07-31T07:21:04;99995.22;;;19.64;69.37
28306;BME280;7516;43.570;1.448;2023-07-31T07:23:31;99994.41;;;19.63;68.02
28306;BME280;7516;43.570;1.448;2023-07-31T07:26:00;99993.59;;;19.63;68.43
28306;BME280;7516;43.570;1.448;2023-07-31T07:28:28;99989.91;;;19.64;68.66
28306;BME280;7516;43.570;1.448;2023-07-31T07:30:56;99992.19;;;19.78;67.82
28306;BME280;7516;43.570;1.448;2023-07-31T07:33:24;99994.59;;;19.80;68.50
28306;BME280;7516;43.570;1.448;2023-07-31T07:35:51;99993.78;;;19.79;67.06
28306;BME280;7516;43.570;1.448;2023-07-31T07:38:19;99985.78;;;19.79;67.53
28306;BME280;7516;43.570;1.448;2023-07-31T07:40:46;99984.53;;;19.82;67.45
28306;BME280;7516;43.570;1.448;2023-07-31T07:43:17;99982.88;;;19.99;67.69
28306;BME280;7516;43.570;1.448;2023-07-31T07:45:45;99988.19;;;19.99;66.24
28306;BME280;7516;43.570;1.448;2023-07-31T07:48:12;99987.03;;;19.95;65.75
28306;BME280;7516;43.570;1.448;2023-07-31T07:50:40;99985.09;;;20.02;66.26
28306;BME280;7516;43.570;1.448;2023-07-31T07:53:08;99983.69;;;20.00;66.01
28306;BME280;7516;43.570;1.448;2023-07-31T07:55:36;99993.50;;;19.99;66.11
28306;BME280;7516;43.570;1.448;2023-07-31T07:58:03;99985.78;;;20.09;66.16
28306;BME280;7516;43.570;1.448;2023-07-31T08:00:32;99980.16;;;20.17;65.47
28306;BME280;7516;43.570;1.448;2023-07-31T08:03:00;99978.75;;;20.15;65.63
28306;BME280;7516;43.570;1.448;2023-07-31T08:05:27;99981.59;;;20.32;65.86
28306;BME280;7516;43.570;1.448;2023-07-31T08:07:55;99981.03;;;20.41;65.32
28306;BME280;7516;43.570;1.448;2023-07-31T08:10:23;99978.72;;;20.45;64.25
28306;BME280;7516;43.570;1.448;2023-07-31T08:12:50;99973.06;;;20.53;64.17
28306;BME280;7516;43.570;1.448;2023-07-31T08:15:18;99968.88;;;20.69;64.04
28306;BME280;7516;43.570;1.448;2023-07-31T08:17:47;99970.75;;;20.68;63.26
28306;BME280;7516;43.570;1.448;2023-07-31T08:20:14;99970.06;;;20.73;63.31
28306;BME280;7516;43.570;1.448;2023-07-31T08:22:42;99960.31;;;20.78;62.96
28306;BME280;7516;43.570;1.448;2023-07-31T08:25:09;99961.50;;;20.82;62.99
28306;BME280;7516;43.570;1.448;2023-07-31T08:27:36;99960.56;;;20.88;62.94
28306;BME280;7516;43.570;1.448;2023-07-31T08:30:05;99965.88;;;20.88;61.89
28306;BME280;7516;43.570;1.448;2023-07-31T08:32:32;99962.19;;;20.89;62.01
28306;BME280;7516;43.570;1.448;2023-07-31T08:35:01;99961.22;;;20.95;61.56
28306;BME280;7516;43.570;1.448;2023-07-31T08:37:29;99959.75;;;20.99;61.22
28306;BME280;7516;43.570;1.448;2023-07-31T08:39:56;99956.94;;;21.06;61.12
28306;BME280;7516;43.570;1.448;2023-07-31T08:42:24;99949.84;;;21.12;59.98
28306;BME280;7516;43.570;1.448;2023-07-31T08:44:53;99952.34;;;21.01;59.69
28306;BME280;7516;43.570;1.448;2023-07-31T08:47:21;99939.78;;;21.14;59.88
28306;BME280;7516;43.570;1.448;2023-07-31T08:49:49;99952.63;;;21.17;60.53
28306;BME280;7516;43.570;1.448;2023-07-31T08:52:20;99943.63;;;21.18;59.01
28306;BME280;7516;43.570;1.448;2023-07-31T08:54:47;99947.31;;;21.17;58.50
28306;BME280;7516;43.570;1.448;2023-07-31T08:57:15;99940.25;;;21.22;58.46
28306;BME280;7516;43.570;1.448;2023-07-31T08:59:44;99943.34;;;21.31;58.00
28306;BME280;7516;43.570;1.448;2023-07-31T09:02:13;99934.88;;;21.34;57.61
28306;BME280;7516;43.570;1.448;2023-07-31T09:04:42;99933.69;;;21.42;57.71
28306;BME280;7516;43.570;1.448;2023-07-31T09:07:10;99936.81;;;21.50;57.95
28306;BME280;7516;43.570;1.448;2023-07-31T09:09:40;99931.47;;;21.50;58.47
28306;BME280;7516;43.570;1.448;2023-07-31T09:12:08;99927.63;;;21.46;57.36
28306;BME280;7516;43.570;1.448;2023-07-31T09:14:36;99922.63;;;21.61;57.88
28306;BME280;7516;43.570;1.448;2023-07-31T09:17:05;99928.13;;;21.71;58.21
28306;BME280;7516;43.570;1.448;2023-07-31T09:19:34;99928.41;;;21.87;57.03
28306;BME280;7516;43.570;1.448;2023-07-31T09:22:03;99923.63;;;21.89;57.27
28306;BME280;7516;43.570;1.448;2023-07-31T09:24:32;99919.44;;;21.93;57.56
28306;BME280;7516;43.570;1.448;2023-07-31T09:27:02;99916.38;;;22.01;57.12
28306;BME280;7516;43.570;1.448;2023-07-31T09:29:29;99924.41;;;22.01;57.80
28306;BME280;7516;43.570;1.448;2023-07-31T09:31:57;99918.75;;;22.14;56.96
28306;BME280;7516;43.570;1.448;2023-07-31T09:34:30;99914.69;;;22.11;55.92
28306;BME280;7516;43.570;1.448;2023-07-31T09:37:01;99914.78;;;22.17;56.57
28306;BME280;7516;43.570;1.448;2023-07-31T09:39:30;99911.88;;;22.18;56.00
28306;BME280;7516;43.570;1.448;2023-07-31T09:41:58;99912.78;;;22.24;55.80
28306;BME280;7516;43.570;1.448;2023-07-31T09:44:39;99915.28;;;22.30;56.18
28306;BME280;7516;43.570;1.448;2023-07-31T09:47:10;99900.94;;;22.36;55.79
28306;BME280;7516;43.570;1.448;2023-07-31T09:49:47;99906.53;;;22.51;55.59
28306;BME280;7516;43.570;1.448;2023-07-31T09:52:15;99890.81;;;22.38;56.09
28306;BME280;7516;43.570;1.448;2023-07-31T09:54:42;99895.13;;;22.39;55.80
28306;BME280;7516;43.570;1.448;2023-07-31T09:57:11;99898.09;;;22.43;55.66
28306;BME280;7516;43.570;1.448;2023-07-31T09:59:40;99898.25;;;22.36;56.36
28306;BME280;7516;43.570;1.448;2023-07-31T10:02:11;99896.63;;;22.35;56.51
28306;BME280;7516;43.570;1.448;2023-07-31T10:04:43;99902.56;;;22.37;56.62
28306;BME280;7516;43.570;1.448;2023-07-31T10:07:11;99889.69;;;22.34;56.96
28306;BME280;7516;43.570;1.448;2023-07-31T10:09:39;99889.19;;;22.37;57.16
28306;BME280;7516;43.570;1.448;2023-07-31T10:12:09;99893.00;;;22.41;57.30
28306;BME280;7516;43.570;1.448;2023-07-31T10:14:41;99897.59;;;22.46;57.21
28306;BME280;7516;43.570;1.448;2023-07-31T10:17:09;99890.97;;;22.48;57.30
28306;BME280;7516;43.570;1.448;2023-07-31T10:19:38;99883.19;;;22.47;57.25
28306;BME280;7516;43.570;1.448;2023-07-31T10:22:07;99882.38;;;22.46;57.31
28306;BME280;7516;43.570;1.448;2023-07-31T10:24:35;99879.81;;;22.51;57.46
28306;BME280;7516;43.570;1.448;2023-07-31T10:27:04;99886.81;;;22.58;57.48
28306;BME280;7516;43.570;1.448;2023-07-31T10:29:32;99890.06;;;22.60;57.39
28306;BME280;7516;43.570;1.448;2023-07-31T10:32:02;99887.88;;;22.57;57.61
28306;BME280;7516;43.570;1.448;2023-07-31T10:34:33;99873.22;;;22.59;57.32
28306;BME280;7516;43.570;1.448;2023-07-31T10:37:19;99877.34;;;22.67;57.43
28306;BME280;7516;43.570;1.448;2023-07-31T10:39:59;99879.50;;;22.70;57.50
28306;BME280;7516;43.570;1.448;2023-07-31T10:42:34;99877.75;;;22.75;57.49
28306;BME280;7516;43.570;1.448;2023-07-31T10:45:03;99869.53;;;22.82;57.39
28306;BME280;7516;43.570;1.448;2023-07-31T10:47:37;99876.06;;;22.91;57.29
28306;BME280;7516;43.570;1.448;2023-07-31T10:50:22;99862.25;;;22.99;56.97
28306;BME280;7516;43.570;1.448;2023-07-31T10:52:51;99869.72;;;22.97;56.85
28306;BME280;7516;43.570;1.448;2023-07-31T10:55:30;99860.72;;;23.03;56.92
28306;BME280;7516;43.570;1.448;2023-07-31T10:58:05;99863.75;;;23.12;56.92
28306;BME280;7516;43.570;1.448;2023-07-31T11:00:33;99877.66;;;23.14;56.64
28306;BME280;7516;43.570;1.448;2023-07-31T11:03:07;99866.16;;;23.13;56.32
28306;BME280;7516;43.570;1.448;2023-07-31T11:05:43;99861.44;;;23.20;56.37
28306;BME280;7516;43.570;1.448;2023-07-31T11:08:13;99863.34;;;23.25;56.23
28306;BME280;7516;43.570;1.448;2023-07-31T11:10:41;99852.41;;;23.26;56.18
28306;BME280;7516;43.570;1.448;2023-07-31T11:13:09;99859.13;;;23.29;56.06
28306;BME280;7516;43.570;1.448;2023-07-31T11:15:36;99854.31;;;23.31;55.91
28306;BME280;7516;43.570;1.448;2023-07-31T11:18:05;99839.94;;;23.37;55.90
28306;BME280;7516;43.570;1.448;2023-07-31T11:20:35;99856.13;;;23.47;55.60
28306;BME280;7516;43.570;1.448;2023-07-31T11:23:06;99848.16;;;23.52;55.49
28306;BME280;7516;43.570;1.448;2023-07-31T11:25:34;99852.22;;;23.60;55.08
28306;BME280;7516;43.570;1.448;2023-07-31T11:28:06;99848.25;;;23.62;55.03
28306;BME280;7516;43.570;1.448;2023-07-31T11:30:34;99838.63;;;23.67;54.66
28306;BME280;7516;43.570;1.448;2023-07-31T11:33:02;99837.81;;;23.66;54.79
28306;BME280;7516;43.570;1.448;2023-07-31T11:35:32;99831.16;;;23.69;54.60
28306;BME280;7516;43.570;1.448;2023-07-31T11:38:00;99823.47;;;23.77;54.40
28306;BME280;7516;43.570;1.448;2023-07-31T11:40:28;99821.34;;;23.79;54.30
28306;BME280;7516;43.570;1.448;2023-07-31T11:42:57;99824.88;;;23.85;54.18
28306;BME280;7516;43.570;1.448;2023-07-31T11:45:28;99824.66;;;23.91;53.78
28306;BME280;7516;43.570;1.448;2023-07-31T11:47:56;99829.81;;;23.98;53.67
28306;BME280;7516;43.570;1.448;2023-07-31T11:50:24;99816.66;;;23.96;53.43
28306;BME280;7516;43.570;1.448;2023-07-31T11:52:57;99804.84;;;23.92;53.52
28306;BME280;7516;43.570;1.448;2023-07-31T11:55:27;99822.03;;;23.96;53.28
28306;BME280;7516;43.570;1.448;2023-07-31T11:57:57;99815.09;;;24.00;53.04
28306;BME280;7516;43.570;1.448;2023-07-31T12:00:25;99803.59;;;24.05;52.95
28306;BME280;7516;43.570;1.448;2023-07-31T12:02:53;99810.34;;;24.13;52.70
28306;BME280;7516;43.570;1.448;2023-07-31T12:05:22;99801.25;;;24.14;52.29
28306;BME280;7516;43.570;1.448;2023-07-31T12:07:54;99789.22;;;24.16;52.17
28306;BME280;7516;43.570;1.448;2023-07-31T12:10:27;99794.38;;;24.28;52.19
28306;BME280;7516;43.570;1.448;2023-07-31T12:13:00;99795.50;;;24.37;51.87
28306;BME280;7516;43.570;1.448;2023-07-31T12:15:46;99794.22;;;24.45;51.39
28306;BME280;7516;43.570;1.448;2023-07-31T12:18:15;99790.50;;;24.51;51.12
28306;BME280;7516;43.570;1.448;2023-07-31T12:20:44;99783.28;;;24.56;51.08
28306;BME280;7516;43.570;1.448;2023-07-31T12:23:18;99787.09;;;24.75;48.88
28306;BME280;7516;43.570;1.448;2023-07-31T12:26:00;99788.81;;;25.07;46.69
28306;BME280;7516;43.570;1.448;2023-07-31T12:28:28;99782.69;;;25.22;45.56
28306;BME280;7516;43.570;1.448;2023-07-31T12:30:58;99781.63;;;25.33;44.61
28306;BME280;7516;43.570;1.448;2023-07-31T12:33:31;99786.19;;;25.32;42.96
28306;BME280;7516;43.570;1.448;2023-07-31T12:36:01;99772.22;;;25.30;43.74
28306;BME280;7516;43.570;1.448;2023-07-31T12:38:31;99767.94;;;25.34;44.52
28306;BME280;7516;43.570;1.448;2023-07-31T12:40:58;99782.97;;;25.40;43.82
28306;BME280;7516;43.570;1.448;2023-07-31T12:43:26;99761.50;;;25.51;43.23
28306;BME280;7516;43.570;1.448;2023-07-31T12:45:54;99771.44;;;25.60;42.98
28306;BME280;7516;43.570;1.448;2023-07-31T12:48:22;99758.03;;;25.65;41.91
28306;BME280;7516;43.570;1.448;2023-07-31T12:50:50;99755.63;;;25.74;41.48
28306;BME280;7516;43.570;1.448;2023-07-31T12:53:17;99753.97;;;25.78;40.42
28306;BME280;7516;43.570;1.448;2023-07-31T12:55:46;99762.31;;;25.81;40.12
28306;BME280;7516;43.570;1.448;2023-07-31T12:58:14;99755.34;;;25.85;39.75
28306;BME280;7516;43.570;1.448;2023-07-31T13:00:41;99744.84;;;25.89;40.65
28306;BME280;7516;43.570;1.448;2023-07-31T13:03:09;99744.53;;;25.96;41.58
28306;BME280;7516;43.570;1.448;2023-07-31T13:05:37;99755.53;;;26.09;40.76
28306;BME280;7516;43.570;1.448;2023-07-31T13:08:05;99749.63;;;26.07;40.45
28306;BME280;7516;43.570;1.448;2023-07-31T13:10:33;99744.25;;;26.07;40.23
28306;BME280;7516;43.570;1.448;2023-07-31T13:13:02;99743.97;;;26.14;39.32
28306;BME280;7516;43.570;1.448;2023-07-31T13:15:30;99731.59;;;26.13;39.72
28306;BME280;7516;43.570;1.448;2023-07-31T13:17:57;99727.53;;;26.26;39.62